sensor_id;sensor_type;location;lat;lon;timestamp;P1;durP1;ratioP1;P2;durP2;ratioP2
9689;SDS011;4884;42.614;23.340;2022-07-18T00:01:56;4.93;;;2.43;;
9689;SDS011;4884;42.614;23.340;2022-07-18T00:04:23;2.50;;;2.30;;
9689;SDS011;4884;42.614;23.340;2022-07-18T00:06:50;3.73;;;2.27;;
9689;SDS011;4884;42.614;23.340;2022-07-18T00:09:16;3.23;;;2.40;;
9689;SDS011;4884;42.614;23.340;2022-07-18T00:11:43;3.63;;;2.50;;
9689;SDS011;4884;42.614;23.340;2022-07-18T00:14:09;2.87;;;2.53;;
9689;SDS011;4884;42.614;23.340;2022-07-18T00:16:35;4.07;;;2.67;;
9689;SDS011;4884;42.614;23.340;2022-07-18T00:19:00;2.93;;;2.70;;
9689;SDS011;4884;42.614;23.340;2022-07-18T00:21:27;2.67;;;2.43;;
9689;SDS011;4884;42.614;23.340;2022-07-18T00:23:53;2.60;;;2.40;;
9689;SDS011;4884;42.614;23.340;2022-07-18T00:26:18;2.93;;;2.50;;
9689;SDS011;4884;42.614;23.340;2022-07-18T00:28:43;3.97;;;3.27;;
9689;SDS011;4884;42.614;23.340;2022-07-18T00:31:09;3.37;;;2.57;;
9689;SDS011;4884;42.614;23.340;2022-07-18T00:33:34;2.43;;;2.23;;
9689;SDS011;4884;42.614;23.340;2022-07-18T00:36:00;3.10;;;2.80;;
9689;SDS011;4884;42.614;23.340;2022-07-18T00:38:26;3.93;;;2.50;;
9689;SDS011;4884;42.614;23.340;2022-07-18T00:40:51;2.40;;;2.20;;
9689;SDS011;4884;42.614;23.340;2022-07-18T00:43:17;5.40;;;2.83;;
9689;SDS011;4884;42.614;23.340;2022-07-18T00:45:46;6.50;;;2.40;;
9689;SDS011;4884;42.614;23.340;2022-07-18T00:48:12;5.20;;;2.77;;
9689;SDS011;4884;42.614;23.340;2022-07-18T00:50:38;2.63;;;2.43;;
9689;SDS011;4884;42.614;23.340;2022-07-18T00:53:05;2.33;;;1.93;;
9689;SDS011;4884;42.614;23.340;2022-07-18T00:55:31;2.00;;;1.90;;
9689;SDS011;4884;42.614;23.340;2022-07-18T00:57:57;2.87;;;2.40;;
9689;SDS011;4884;42.614;23.340;2022-07-18T01:00:23;2.40;;;2.13;;
9689;SDS011;4884;42.614;23.340;2022-07-18T01:03:08;1.60;;;1.50;;
9689;SDS011;4884;42.614;23.340;2022-07-18T01:05:33;1.87;;;1.73;;
9689;SDS011;4884;42.614;23.340;2022-07-18T01:07:59;1.70;;;1.60;;
9689;SDS011;4884;42.614;23.340;2022-07-18T01:10:24;2.13;;;1.60;;
9689;SDS011;4884;42.614;23.340;2022-07-18T01:12:50;2.33;;;1.60;;
9689;SDS011;4884;42.614;23.340;2022-07-18T01:15:16;1.60;;;1.50;;
9689;SDS011;4884;42.614;23.340;2022-07-18T01:17:41;1.50;;;1.40;;
9689;SDS011;4884;42.614;23.340;2022-07-18T01:20:07;2.67;;;1.43;;
9689;SDS011;4884;42.614;23.340;2022-07-18T01:22:33;1.63;;;1.30;;
9689;SDS011;4884;42.614;23.340;2022-07-18T01:24:59;1.30;;;1.23;;
9689;SDS011;4884;42.614;23.340;2022-07-18T01:27:24;1.60;;;1.50;;
9689;SDS011;4884;42.614;23.340;2022-07-18T01:29:50;2.50;;;1.37;;
9689;SDS011;4884;42.614;23.340;2022-07-18T01:32:17;2.13;;;1.70;;
9689;SDS011;4884;42.614;23.340;2022-07-18T01:34:44;3.23;;;1.37;;
9689;SDS011;4884;42.614;23.340;2022-07-18T01:37:13;1.97;;;1.20;;
9689;SDS011;4884;42.614;23.340;2022-07-18T01:39:40;1.57;;;1.47;;
9689;SDS011;4884;42.614;23.340;2022-07-18T01:42:07;2.43;;;1.50;;
9689;SDS011;4884;42.614;23.340;2022-07-18T01:44:34;1.67;;;1.20;;
9689;SDS011;4884;42.614;23.340;2022-07-18T01:47:00;2.77;;;1.30;;
9689;SDS011;4884;42.614;23.340;2022-07-18T01:49:27;1.60;;;1.50;;
9689;SDS011;4884;42.614;23.340;2022-07-18T01:51:54;1.80;;;0.90;;
9689;SDS011;4884;42.614;23.340;2022-07-18T01:54:25;2.63;;;1.43;;
9689;SDS011;4884;42.614;23.340;2022-07-18T01:56:52;3.20;;;1.33;;
9689;SDS011;4884;42.614;23.340;2022-07-18T01:59:18;2.07;;;1.10;;
9689;SDS011;4884;42.614;23.340;2022-07-18T02:01:44;2.73;;;1.23;;
9689;SDS011;4884;42.614;23.340;2022-07-18T02:04:10;1.00;;;1.00;;
9689;SDS011;4884;42.614;23.340;2022-07-18T02:06:36;1.07;;;0.97;;
9689;SDS011;4884;42.614;23.340;2022-07-18T02:09:02;1.73;;;1.00;;
9689;SDS011;4884;42.614;23.340;2022-07-18T02:11:29;1.07;;;0.93;;
9689;SDS011;4884;42.614;23.340;2022-07-18T02:13:54;1.73;;;1.10;;
9689;SDS011;4884;42.614;23.340;2022-07-18T02:16:20;1.40;;;1.30;;
9689;SDS011;4884;42.614;23.340;2022-07-18T02:18:45;5.17;;;1.23;;
9689;SDS011;4884;42.614;23.340;2022-07-18T02:21:11;1.20;;;1.10;;
9689;SDS011;4884;42.614;23.340;2022-07-18T02:23:39;1.93;;;1.10;;
9689;SDS011;4884;42.614;23.340;2022-07-18T02:26:05;1.00;;;0.90;;
9689;SDS011;4884;42.614;23.340;2022-07-18T02:28:31;1.23;;;1.00;;
9689;SDS011;4884;42.614;23.340;2022-07-18T02:30:57;1.60;;;1.10;;
9689;SDS011;4884;42.614;23.340;2022-07-18T02:33:22;1.20;;;1.10;;
9689;SDS011;4884;42.614;23.340;2022-07-18T02:35:48;1.90;;;1.00;;
9689;SDS011;4884;42.614;23.340;2022-07-18T02:38:13;1.63;;;1.17;;
9689;SDS011;4884;42.614;23.340;2022-07-18T02:40:39;2.07;;;1.73;;
9689;SDS011;4884;42.614;23.340;2022-07-18T02:43:04;2.80;;;1.50;;
9689;SDS011;4884;42.614;23.340;2022-07-18T02:45:30;1.27;;;1.10;;
9689;SDS011;4884;42.614;23.340;2022-07-18T02:47:56;1.30;;;1.10;;
9689;SDS011;4884;42.614;23.340;2022-07-18T02:50:21;3.00;;;1.27;;
9689;SDS011;4884;42.614;23.340;2022-07-18T02:52:47;1.20;;;1.10;;
9689;SDS011;4884;42.614;23.340;2022-07-18T02:55:13;1.27;;;1.00;;
9689;SDS011;4884;42.614;23.340;2022-07-18T02:57:39;2.87;;;1.10;;
9689;SDS011;4884;42.614;23.340;2022-07-18T03:00:06;1.37;;;1.20;;
9689;SDS011;4884;42.614;23.340;2022-07-18T03:02:34;1.13;;;1.00;;
9689;SDS011;4884;42.614;23.340;2022-07-18T03:05:00;1.07;;;1.03;;
9689;SDS011;4884;42.614;23.340;2022-07-18T03:07:26;3.60;;;2.63;;
9689;SDS011;4884;42.614;23.340;2022-07-18T03:09:51;2.83;;;2.63;;
9689;SDS011;4884;42.614;23.340;2022-07-18T03:12:17;18.67;;;12.57;;
9689;SDS011;4884;42.614;23.340;2022-07-18T03:14:43;37.63;;;27.50;;
9689;SDS011;4884;42.614;23.340;2022-07-18T03:17:08;38.07;;;30.30;;
9689;SDS011;4884;42.614;23.340;2022-07-18T03:19:34;40.27;;;34.13;;
9689;SDS011;4884;42.614;23.340;2022-07-18T03:22:00;24.97;;;20.57;;
9689;SDS011;4884;42.614;23.340;2022-07-18T03:24:26;5.33;;;3.40;;
9689;SDS011;4884;42.614;23.340;2022-07-18T03:26:52;7.10;;;2.60;;
9689;SDS011;4884;42.614;23.340;2022-07-18T03:29:17;4.87;;;3.27;;
9689;SDS011;4884;42.614;23.340;2022-07-18T03:31:43;9.17;;;6.70;;
9689;SDS011;4884;42.614;23.340;2022-07-18T03:34:08;5.63;;;4.43;;
9689;SDS011;4884;42.614;23.340;2022-07-18T03:36:34;5.90;;;5.30;;
9689;SDS011;4884;42.614;23.340;2022-07-18T03:38:59;3.57;;;2.53;;
9689;SDS011;4884;42.614;23.340;2022-07-18T03:41:25;5.20;;;3.50;;
9689;SDS011;4884;42.614;23.340;2022-07-18T03:43:50;13.03;;;10.40;;
9689;SDS011;4884;42.614;23.340;2022-07-18T03:46:16;18.00;;;13.53;;
9689;SDS011;4884;42.614;23.340;2022-07-18T03:48:41;17.67;;;12.00;;
9689;SDS011;4884;42.614;23.340;2022-07-18T03:51:07;14.33;;;9.60;;
9689;SDS011;4884;42.614;23.340;2022-07-18T03:53:32;9.57;;;8.43;;
9689;SDS011;4884;42.614;23.340;2022-07-18T03:55:58;6.50;;;3.33;;
9689;SDS011;4884;42.614;23.340;2022-07-18T03:58:24;3.43;;;2.10;;
9689;SDS011;4884;42.614;23.340;2022-07-18T04:00:50;3.90;;;3.50;;
9689;SDS011;4884;42.614;23.340;2022-07-18T04:03:16;19.27;;;17.20;;
9689;SDS011;4884;42.614;23.340;2022-07-18T04:05:42;14.60;;;13.17;;
9689;SDS011;4884;42.614;23.340;2022-07-18T04:08:08;6.73;;;5.50;;
9689;SDS011;4884;42.614;23.340;2022-07-18T04:10:33;3.20;;;2.30;;
9689;SDS011;4884;42.614;23.340;2022-07-18T04:12:59;2.57;;;1.70;;
9689;SDS011;4884;42.614;23.340;2022-07-18T04:15:24;3.20;;;1.97;;
9689;SDS011;4884;42.614;23.340;2022-07-18T04:17:50;3.07;;;1.83;;
9689;SDS011;4884;42.614;23.340;2022-07-18T04:20:17;2.80;;;2.33;;
9689;SDS011;4884;42.614;23.340;2022-07-18T04:22:45;1.37;;;1.27;;
9689;SDS011;4884;42.614;23.340;2022-07-18T04:25:12;7.43;;;1.23;;
9689;SDS011;4884;42.614;23.340;2022-07-18T04:27:37;2.00;;;1.00;;
9689;SDS011;4884;42.614;23.340;2022-07-18T04:30:03;2.47;;;1.60;;
9689;SDS011;4884;42.614;23.340;2022-07-18T04:32:29;5.63;;;1.80;;
9689;SDS011;4884;42.614;23.340;2022-07-18T04:34:54;2.03;;;1.30;;
9689;SDS011;4884;42.614;23.340;2022-07-18T04:37:19;2.60;;;1.10;;
9689;SDS011;4884;42.614;23.340;2022-07-18T04:39:45;1.10;;;1.00;;
9689;SDS011;4884;42.614;23.340;2022-07-18T04:42:10;1.30;;;1.20;;
9689;SDS011;4884;42.614;23.340;2022-07-18T04:44:36;1.17;;;1.07;;
9689;SDS011;4884;42.614;23.340;2022-07-18T04:47:01;1.47;;;1.27;;
9689;SDS011;4884;42.614;23.340;2022-07-18T04:49:27;1.57;;;1.20;;
9689;SDS011;4884;42.614;23.340;2022-07-18T04:51:52;1.93;;;1.30;;
9689;SDS011;4884;42.614;23.340;2022-07-18T04:54:18;3.80;;;1.40;;
9689;SDS011;4884;42.614;23.340;2022-07-18T04:56:44;1.40;;;1.30;;
9689;SDS011;4884;42.614;23.340;2022-07-18T04:59:09;2.13;;;1.50;;
9689;SDS011;4884;42.614;23.340;2022-07-18T05:01:35;1.83;;;1.40;;
9689;SDS011;4884;42.614;23.340;2022-07-18T05:04:00;3.17;;;1.27;;
9689;SDS011;4884;42.614;23.340;2022-07-18T05:06:26;1.17;;;1.13;;
9689;SDS011;4884;42.614;23.340;2022-07-18T05:08:51;1.40;;;1.30;;
9689;SDS011;4884;42.614;23.340;2022-07-18T05:11:17;3.17;;;1.03;;
9689;SDS011;4884;42.614;23.340;2022-07-18T05:13:42;2.43;;;1.67;;
9689;SDS011;4884;42.614;23.340;2022-07-18T05:16:08;2.37;;;1.60;;
9689;SDS011;4884;42.614;23.340;2022-07-18T05:18:33;4.03;;;1.33;;
9689;SDS011;4884;42.614;23.340;2022-07-18T05:20:58;1.57;;;1.47;;
9689;SDS011;4884;42.614;23.340;2022-07-18T05:23:24;1.80;;;1.27;;
9689;SDS011;4884;42.614;23.340;2022-07-18T05:25:50;2.33;;;1.40;;
9689;SDS011;4884;42.614;23.340;2022-07-18T05:28:16;3.60;;;1.43;;
9689;SDS011;4884;42.614;23.340;2022-07-18T05:30:41;1.30;;;1.20;;
9689;SDS011;4884;42.614;23.340;2022-07-18T05:33:07;2.70;;;1.37;;
9689;SDS011;4884;42.614;23.340;2022-07-18T05:35:32;3.13;;;1.33;;
9689;SDS011;4884;42.614;23.340;2022-07-18T05:37:58;2.83;;;1.17;;
9689;SDS011;4884;42.614;23.340;2022-07-18T05:40:23;3.60;;;1.70;;
9689;SDS011;4884;42.614;23.340;2022-07-18T05:42:50;1.70;;;1.50;;
9689;SDS011;4884;42.614;23.340;2022-07-18T05:45:15;2.00;;;1.30;;
9689;SDS011;4884;42.614;23.340;2022-07-18T05:47:41;1.30;;;1.20;;
9689;SDS011;4884;42.614;23.340;2022-07-18T05:50:07;3.80;;;1.50;;
9689;SDS011;4884;42.614;23.340;2022-07-18T05:52:33;1.07;;;1.03;;
9689;SDS011;4884;42.614;23.340;2022-07-18T05:54:59;3.03;;;1.50;;
9689;SDS011;4884;42.614;23.340;2022-07-18T05:57:24;2.60;;;1.97;;
9689;SDS011;4884;42.614;23.340;2022-07-18T05:59:50;2.90;;;1.60;;
9689;SDS011;4884;42.614;23.340;2022-07-18T06:02:15;2.63;;;1.40;;
9689;SDS011;4884;42.614;23.340;2022-07-18T06:04:41;3.57;;;1.30;;
9689;SDS011;4884;42.614;23.340;2022-07-18T06:07:06;2.83;;;1.70;;
9689;SDS011;4884;42.614;23.340;2022-07-18T06:09:32;3.50;;;1.90;;
9689;SDS011;4884;42.614;23.340;2022-07-18T06:11:58;1.80;;;1.50;;
9689;SDS011;4884;42.614;23.340;2022-07-18T06:14:25;5.27;;;2.00;;
9689;SDS011;4884;42.614;23.340;2022-07-18T06:16:54;2.07;;;1.70;;
9689;SDS011;4884;42.614;23.340;2022-07-18T06:19:20;2.00;;;1.63;;
9689;SDS011;4884;42.614;23.340;2022-07-18T06:21:46;2.90;;;1.67;;
9689;SDS011;4884;42.614;23.340;2022-07-18T06:24:12;5.30;;;1.70;;
9689;SDS011;4884;42.614;23.340;2022-07-18T06:26:37;3.13;;;1.37;;
9689;SDS011;4884;42.614;23.340;2022-07-18T06:29:03;2.50;;;1.40;;
9689;SDS011;4884;42.614;23.340;2022-07-18T06:31:29;2.10;;;1.37;;
9689;SDS011;4884;42.614;23.340;2022-07-18T06:33:54;4.90;;;1.40;;
9689;SDS011;4884;42.614;23.340;2022-07-18T06:36:20;3.07;;;1.60;;
9689;SDS011;4884;42.614;23.340;2022-07-18T06:38:48;2.23;;;1.33;;
9689;SDS011;4884;42.614;23.340;2022-07-18T06:41:17;3.70;;;1.50;;
9689;SDS011;4884;42.614;23.340;2022-07-18T06:43:43;5.43;;;1.23;;
9689;SDS011;4884;42.614;23.340;2022-07-18T06:46:08;4.57;;;1.43;;
9689;SDS011;4884;42.614;23.340;2022-07-18T06:48:34;1.30;;;1.20;;
9689;SDS011;4884;42.614;23.340;2022-07-18T06:51:00;3.30;;;1.60;;
9689;SDS011;4884;42.614;23.340;2022-07-18T06:53:27;3.88;;;1.83;;
9689;SDS011;4884;42.614;23.340;2022-07-18T06:55:54;2.83;;;1.63;;
9689;SDS011;4884;42.614;23.340;2022-07-18T06:58:20;3.05;;;1.15;;
9689;SDS011;4884;42.614;23.340;2022-07-18T07:00:45;1.55;;;1.40;;
9689;SDS011;4884;42.614;23.340;2022-07-18T07:03:11;6.15;;;1.45;;
9689;SDS011;4884;42.614;23.340;2022-07-18T07:05:36;4.97;;;1.60;;
9689;SDS011;4884;42.614;23.340;2022-07-18T07:08:02;1.52;;;1.23;;
9689;SDS011;4884;42.614;23.340;2022-07-18T07:10:27;3.55;;;1.73;;
9689;SDS011;4884;42.614;23.340;2022-07-18T07:12:53;1.92;;;1.70;;
9689;SDS011;4884;42.614;23.340;2022-07-18T07:15:20;5.55;;;1.80;;
9689;SDS011;4884;42.614;23.340;2022-07-18T07:17:47;2.47;;;1.48;;
9689;SDS011;4884;42.614;23.340;2022-07-18T07:20:13;1.40;;;1.30;;
9689;SDS011;4884;42.614;23.340;2022-07-18T07:22:50;2.10;;;1.52;;
9689;SDS011;4884;42.614;23.340;2022-07-18T07:25:17;2.88;;;1.27;;
9689;SDS011;4884;42.614;23.340;2022-07-18T07:27:44;2.67;;;1.60;;
9689;SDS011;4884;42.614;23.340;2022-07-18T07:30:11;6.28;;;1.80;;
9689;SDS011;4884;42.614;23.340;2022-07-18T07:32:38;2.17;;;1.40;;
9689;SDS011;4884;42.614;23.340;2022-07-18T07:35:07;1.58;;;1.20;;
9689;SDS011;4884;42.614;23.340;2022-07-18T07:37:35;4.57;;;1.73;;
9689;SDS011;4884;42.614;23.340;2022-07-18T07:40:01;6.13;;;2.03;;
9689;SDS011;4884;42.614;23.340;2022-07-18T07:42:28;2.97;;;1.60;;
9689;SDS011;4884;42.614;23.340;2022-07-18T07:44:53;2.22;;;1.38;;
9689;SDS011;4884;42.614;23.340;2022-07-18T07:47:19;1.90;;;1.77;;
9689;SDS011;4884;42.614;23.340;2022-07-18T07:49:44;3.38;;;1.38;;
9689;SDS011;4884;42.614;23.340;2022-07-18T07:52:10;13.60;;;2.60;;
9689;SDS011;4884;42.614;23.340;2022-07-18T07:54:38;4.38;;;1.63;;
9689;SDS011;4884;42.614;23.340;2022-07-18T07:57:05;1.95;;;1.40;;
9689;SDS011;4884;42.614;23.340;2022-07-18T07:59:30;2.58;;;1.48;;
9689;SDS011;4884;42.614;23.340;2022-07-18T08:01:57;8.90;;;2.15;;
9689;SDS011;4884;42.614;23.340;2022-07-18T08:04:23;4.78;;;1.90;;
9689;SDS011;4884;42.614;23.340;2022-07-18T08:06:48;2.85;;;1.80;;
9689;SDS011;4884;42.614;23.340;2022-07-18T08:09:14;2.65;;;1.35;;
9689;SDS011;4884;42.614;23.340;2022-07-18T08:11:40;2.20;;;1.48;;
9689;SDS011;4884;42.614;23.340;2022-07-18T08:14:05;3.67;;;1.95;;
9689;SDS011;4884;42.614;23.340;2022-07-18T08:16:31;3.13;;;2.15;;
9689;SDS011;4884;42.614;23.340;2022-07-18T08:18:56;2.22;;;1.58;;
9689;SDS011;4884;42.614;23.340;2022-07-18T08:21:21;5.68;;;1.83;;
9689;SDS011;4884;42.614;23.340;2022-07-18T08:23:47;7.07;;;2.25;;
9689;SDS011;4884;42.614;23.340;2022-07-18T08:26:13;5.40;;;2.10;;
9689;SDS011;4884;42.614;23.340;2022-07-18T08:28:39;5.15;;;2.08;;
9689;SDS011;4884;42.614;23.340;2022-07-18T08:31:04;12.10;;;2.67;;
9689;SDS011;4884;42.614;23.340;2022-07-18T08:33:30;2.92;;;1.90;;
9689;SDS011;4884;42.614;23.340;2022-07-18T08:35:55;2.08;;;1.60;;
9689;SDS011;4884;42.614;23.340;2022-07-18T08:38:21;1.55;;;1.35;;
9689;SDS011;4884;42.614;23.340;2022-07-18T08:40:47;4.05;;;1.90;;
9689;SDS011;4884;42.614;23.340;2022-07-18T08:43:14;3.85;;;1.88;;
9689;SDS011;4884;42.614;23.340;2022-07-18T08:45:41;2.53;;;1.80;;
9689;SDS011;4884;42.614;23.340;2022-07-18T08:48:08;5.05;;;2.10;;
9689;SDS011;4884;42.614;23.340;2022-07-18T08:50:34;2.90;;;1.55;;
9689;SDS011;4884;42.614;23.340;2022-07-18T08:53:00;3.38;;;1.60;;
9689;SDS011;4884;42.614;23.340;2022-07-18T08:55:26;2.75;;;1.83;;
9689;SDS011;4884;42.614;23.340;2022-07-18T08:57:51;3.28;;;2.13;;
9689;SDS011;4884;42.614;23.340;2022-07-18T09:00:20;6.22;;;1.77;;
9689;SDS011;4884;42.614;23.340;2022-07-18T09:02:47;4.20;;;1.75;;
9689;SDS011;4884;42.614;23.340;2022-07-18T09:05:24;2.10;;;1.88;;
9689;SDS011;4884;42.614;23.340;2022-07-18T09:07:49;1.98;;;1.77;;
9689;SDS011;4884;42.614;23.340;2022-07-18T09:10:16;4.85;;;1.63;;
9689;SDS011;4884;42.614;23.340;2022-07-18T09:12:54;1.80;;;1.60;;
9689;SDS011;4884;42.614;23.340;2022-07-18T09:15:22;1.73;;;1.55;;
9689;SDS011;4884;42.614;23.340;2022-07-18T09:17:48;5.20;;;1.73;;
9689;SDS011;4884;42.614;23.340;2022-07-18T09:20:15;3.72;;;1.58;;
9689;SDS011;4884;42.614;23.340;2022-07-18T09:22:41;2.58;;;1.60;;
9689;SDS011;4884;42.614;23.340;2022-07-18T09:25:09;3.75;;;1.85;;
9689;SDS011;4884;42.614;23.340;2022-07-18T09:27:44;2.03;;;1.50;;
9689;SDS011;4884;42.614;23.340;2022-07-18T09:30:26;5.00;;;1.70;;
9689;SDS011;4884;42.614;23.340;2022-07-18T09:35:29;2.00;;;1.63;;
9689;SDS011;4884;42.614;23.340;2022-07-18T09:38:03;2.35;;;1.70;;
9689;SDS011;4884;42.614;23.340;2022-07-18T09:40:44;2.97;;;1.65;;
9689;SDS011;4884;42.614;23.340;2022-07-18T09:43:11;5.50;;;2.08;;
9689;SDS011;4884;42.614;23.340;2022-07-18T09:45:48;6.45;;;2.55;;
9689;SDS011;4884;42.614;23.340;2022-07-18T09:48:25;2.05;;;1.85;;
9689;SDS011;4884;42.614;23.340;2022-07-18T09:53:24;2.30;;;1.98;;
9689;SDS011;4884;42.614;23.340;2022-07-18T09:56:29;1.65;;;1.50;;
9689;SDS011;4884;42.614;23.340;2022-07-18T09:58:53;3.55;;;1.75;;
9689;SDS011;4884;42.614;23.340;2022-07-18T10:01:21;1.77;;;1.67;;
9689;SDS011;4884;42.614;23.340;2022-07-18T10:03:47;1.90;;;1.60;;
9689;SDS011;4884;42.614;23.340;2022-07-18T10:06:14;2.80;;;2.05;;
9689;SDS011;4884;42.614;23.340;2022-07-18T10:08:40;2.45;;;2.25;;
9689;SDS011;4884;42.614;23.340;2022-07-18T10:11:07;4.53;;;2.00;;
9689;SDS011;4884;42.614;23.340;2022-07-18T10:13:34;4.07;;;2.17;;
9689;SDS011;4884;42.614;23.340;2022-07-18T10:16:01;3.05;;;1.98;;
9689;SDS011;4884;42.614;23.340;2022-07-18T10:18:28;2.67;;;1.98;;
9689;SDS011;4884;42.614;23.340;2022-07-18T10:21:03;2.75;;;1.88;;
9689;SDS011;4884;42.614;23.340;2022-07-18T10:23:33;2.63;;;2.00;;
9689;SDS011;4884;42.614;23.340;2022-07-18T10:26:19;2.17;;;1.98;;
9689;SDS011;4884;42.614;23.340;2022-07-18T10:34:15;2.63;;;1.98;;
9689;SDS011;4884;42.614;23.340;2022-07-18T10:36:40;3.53;;;2.17;;
9689;SDS011;4884;42.614;23.340;2022-07-18T10:39:35;5.57;;;2.33;;
9689;SDS011;4884;42.614;23.340;2022-07-18T10:57:26;7.20;;;2.20;;
9689;SDS011;4884;42.614;23.340;2022-07-18T11:00:00;10.77;;;2.88;;
9689;SDS011;4884;42.614;23.340;2022-07-18T11:02:31;4.13;;;2.22;;
9689;SDS011;4884;42.614;23.340;2022-07-18T11:05:02;2.30;;;2.10;;
9689;SDS011;4884;42.614;23.340;2022-07-18T11:07:28;3.45;;;2.20;;
9689;SDS011;4884;42.614;23.340;2022-07-18T11:09:54;2.75;;;1.98;;
9689;SDS011;4884;42.614;23.340;2022-07-18T11:12:29;3.10;;;2.00;;
9689;SDS011;4884;42.614;23.340;2022-07-18T11:20:29;1.85;;;1.75;;
9689;SDS011;4884;42.614;23.340;2022-07-18T11:23:10;2.55;;;2.35;;
9689;SDS011;4884;42.614;23.340;2022-07-18T11:25:39;2.75;;;2.30;;
9689;SDS011;4884;42.614;23.340;2022-07-18T11:28:07;1.80;;;1.70;;
9689;SDS011;4884;42.614;23.340;2022-07-18T11:30:34;2.10;;;1.90;;
9689;SDS011;4884;42.614;23.340;2022-07-18T11:33:00;2.55;;;1.98;;
9689;SDS011;4884;42.614;23.340;2022-07-18T11:35:25;2.40;;;2.05;;
9689;SDS011;4884;42.614;23.340;2022-07-18T11:37:51;6.13;;;2.40;;
9689;SDS011;4884;42.614;23.340;2022-07-18T11:40:17;4.80;;;2.20;;
9689;SDS011;4884;42.614;23.340;2022-07-18T11:42:43;3.28;;;2.15;;
9689;SDS011;4884;42.614;23.340;2022-07-18T11:45:13;3.42;;;1.92;;
9689;SDS011;4884;42.614;23.340;2022-07-18T11:47:45;3.22;;;2.10;;
9689;SDS011;4884;42.614;23.340;2022-07-18T11:50:15;3.30;;;2.13;;
9689;SDS011;4884;42.614;23.340;2022-07-18T11:52:42;2.70;;;2.10;;
9689;SDS011;4884;42.614;23.340;2022-07-18T11:55:08;3.85;;;3.20;;
9689;SDS011;4884;42.614;23.340;2022-07-18T11:57:35;2.03;;;1.83;;
9689;SDS011;4884;42.614;23.340;2022-07-18T12:00:12;2.67;;;1.80;;
9689;SDS011;4884;42.614;23.340;2022-07-18T12:05:33;1.83;;;1.67;;
9689;SDS011;4884;42.614;23.340;2022-07-18T12:08:00;2.97;;;1.70;;
9689;SDS011;4884;42.614;23.340;2022-07-18T12:10:25;2.03;;;1.83;;
9689;SDS011;4884;42.614;23.340;2022-07-18T12:12:51;2.20;;;1.85;;
9689;SDS011;4884;42.614;23.340;2022-07-18T12:15:17;1.60;;;1.50;;
9689;SDS011;4884;42.614;23.340;2022-07-18T12:17:44;1.90;;;1.77;;
9689;SDS011;4884;42.614;23.340;2022-07-18T12:20:12;2.88;;;1.90;;
9689;SDS011;4884;42.614;23.340;2022-07-18T12:23:02;3.33;;;2.00;;
9689;SDS011;4884;42.614;23.340;2022-07-18T12:25:39;2.45;;;1.67;;
9689;SDS011;4884;42.614;23.340;2022-07-18T12:28:11;1.80;;;1.70;;
9689;SDS011;4884;42.614;23.340;2022-07-18T12:30:47;4.75;;;1.38;;
9689;SDS011;4884;42.614;23.340;2022-07-18T12:33:12;3.55;;;1.85;;
9689;SDS011;4884;42.614;23.340;2022-07-18T12:35:38;2.42;;;1.60;;
9689;SDS011;4884;42.614;23.340;2022-07-18T12:43:11;1.73;;;1.63;;
9689;SDS011;4884;42.614;23.340;2022-07-18T12:45:38;2.95;;;1.73;;
9689;SDS011;4884;42.614;23.340;2022-07-18T12:48:05;2.03;;;1.63;;
9689;SDS011;4884;42.614;23.340;2022-07-18T12:50:33;3.45;;;2.55;;
9689;SDS011;4884;42.614;23.340;2022-07-18T12:52:59;1.88;;;1.73;;
9689;SDS011;4884;42.614;23.340;2022-07-18T12:55:25;2.47;;;1.73;;
9689;SDS011;4884;42.614;23.340;2022-07-18T12:57:52;4.15;;;2.13;;
9689;SDS011;4884;42.614;23.340;2022-07-18T13:00:17;1.83;;;1.52;;
9689;SDS011;4884;42.614;23.340;2022-07-18T13:02:43;3.92;;;2.22;;
9689;SDS011;4884;42.614;23.340;2022-07-18T13:05:09;1.83;;;1.73;;
9689;SDS011;4884;42.614;23.340;2022-07-18T13:07:34;2.53;;;1.77;;
9689;SDS011;4884;42.614;23.340;2022-07-18T13:10:00;1.95;;;1.85;;
9689;SDS011;4884;42.614;23.340;2022-07-18T13:12:26;2.17;;;1.90;;
9689;SDS011;4884;42.614;23.340;2022-07-18T13:14:52;3.45;;;1.98;;
9689;SDS011;4884;42.614;23.340;2022-07-18T13:17:17;1.92;;;1.65;;
9689;SDS011;4884;42.614;23.340;2022-07-18T13:19:43;2.05;;;1.95;;
9689;SDS011;4884;42.614;23.340;2022-07-18T13:22:09;2.58;;;1.90;;
9689;SDS011;4884;42.614;23.340;2022-07-18T13:24:35;2.65;;;2.05;;
9689;SDS011;4884;42.614;23.340;2022-07-18T13:27:02;2.78;;;2.00;;
9689;SDS011;4884;42.614;23.340;2022-07-18T13:29:28;3.22;;;2.05;;
9689;SDS011;4884;42.614;23.340;2022-07-18T13:31:54;4.03;;;2.00;;
9689;SDS011;4884;42.614;23.340;2022-07-18T13:34:20;2.63;;;2.42;;
9689;SDS011;4884;42.614;23.340;2022-07-18T13:36:46;2.97;;;2.00;;
9689;SDS011;4884;42.614;23.340;2022-07-18T13:39:12;6.25;;;2.95;;
9689;SDS011;4884;42.614;23.340;2022-07-18T13:41:38;2.42;;;2.22;;
9689;SDS011;4884;42.614;23.340;2022-07-18T13:44:03;2.20;;;2.00;;
9689;SDS011;4884;42.614;23.340;2022-07-18T13:46:29;3.13;;;1.88;;
9689;SDS011;4884;42.614;23.340;2022-07-18T13:48:54;2.40;;;2.20;;
9689;SDS011;4884;42.614;23.340;2022-07-18T13:51:20;1.60;;;1.50;;
9689;SDS011;4884;42.614;23.340;2022-07-18T13:53:45;5.18;;;2.65;;
9689;SDS011;4884;42.614;23.340;2022-07-18T13:56:11;4.15;;;2.65;;
9689;SDS011;4884;42.614;23.340;2022-07-18T13:58:36;3.28;;;2.70;;
9689;SDS011;4884;42.614;23.340;2022-07-18T14:01:02;3.50;;;2.42;;
9689;SDS011;4884;42.614;23.340;2022-07-18T14:03:27;3.25;;;2.72;;
9689;SDS011;4884;42.614;23.340;2022-07-18T14:05:53;6.25;;;2.90;;
9689;SDS011;4884;42.614;23.340;2022-07-18T14:08:18;5.43;;;3.08;;
9689;SDS011;4884;42.614;23.340;2022-07-18T14:10:43;4.57;;;3.00;;
9689;SDS011;4884;42.614;23.340;2022-07-18T14:13:09;15.80;;;3.05;;
9689;SDS011;4884;42.614;23.340;2022-07-18T14:15:36;3.25;;;2.40;;
9689;SDS011;4884;42.614;23.340;2022-07-18T14:18:01;4.80;;;3.22;;
9689;SDS011;4884;42.614;23.340;2022-07-18T14:20:29;2.95;;;2.75;;
9689;SDS011;4884;42.614;23.340;2022-07-18T14:22:55;3.33;;;2.72;;
9689;SDS011;4884;42.614;23.340;2022-07-18T14:25:20;2.67;;;2.47;;
9689;SDS011;4884;42.614;23.340;2022-07-18T14:27:45;3.17;;;2.85;;
9689;SDS011;4884;42.614;23.340;2022-07-18T14:30:13;4.90;;;3.10;;
9689;SDS011;4884;42.614;23.340;2022-07-18T14:32:40;8.48;;;3.45;;
9689;SDS011;4884;42.614;23.340;2022-07-18T14:35:06;3.15;;;2.40;;
9689;SDS011;4884;42.614;23.340;2022-07-18T14:37:32;3.50;;;2.63;;
9689;SDS011;4884;42.614;23.340;2022-07-18T14:39:58;7.20;;;3.20;;
9689;SDS011;4884;42.614;23.340;2022-07-18T14:42:24;2.80;;;2.60;;
9689;SDS011;4884;42.614;23.340;2022-07-18T14:44:50;6.43;;;2.97;;
9689;SDS011;4884;42.614;23.340;2022-07-18T14:47:16;4.45;;;2.97;;
9689;SDS011;4884;42.614;23.340;2022-07-18T14:49:42;5.03;;;2.90;;
9689;SDS011;4884;42.614;23.340;2022-07-18T14:52:07;5.13;;;3.10;;
9689;SDS011;4884;42.614;23.340;2022-07-18T14:54:32;3.38;;;2.85;;
9689;SDS011;4884;42.614;23.340;2022-07-18T14:56:58;3.65;;;3.33;;
9689;SDS011;4884;42.614;23.340;2022-07-18T14:59:23;3.95;;;2.88;;
9689;SDS011;4884;42.614;23.340;2022-07-18T15:01:49;5.90;;;3.53;;
9689;SDS011;4884;42.614;23.340;2022-07-18T15:04:15;2.97;;;2.67;;
9689;SDS011;4884;42.614;23.340;2022-07-18T15:06:41;3.28;;;2.97;;
9689;SDS011;4884;42.614;23.340;2022-07-18T15:09:07;3.55;;;2.67;;
9689;SDS011;4884;42.614;23.340;2022-07-18T15:11:38;3.60;;;3.30;;
9689;SDS011;4884;42.614;23.340;2022-07-18T15:14:05;3.65;;;2.72;;
9689;SDS011;4884;42.614;23.340;2022-07-18T15:16:31;3.35;;;3.08;;
9689;SDS011;4884;42.614;23.340;2022-07-18T15:18:56;4.43;;;3.17;;
9689;SDS011;4884;42.614;23.340;2022-07-18T15:21:22;3.08;;;2.85;;
9689;SDS011;4884;42.614;23.340;2022-07-18T15:23:47;2.78;;;2.58;;
9689;SDS011;4884;42.614;23.340;2022-07-18T15:26:13;3.53;;;3.22;;
9689;SDS011;4884;42.614;23.340;2022-07-18T15:28:38;4.40;;;3.22;;
9689;SDS011;4884;42.614;23.340;2022-07-18T15:31:03;3.05;;;2.58;;
9689;SDS011;4884;42.614;23.340;2022-07-18T15:33:29;3.00;;;2.70;;
9689;SDS011;4884;42.614;23.340;2022-07-18T15:35:55;3.67;;;2.97;;
9689;SDS011;4884;42.614;23.340;2022-07-18T15:38:20;3.53;;;2.95;;